Time;durP1;ratioP1;P1;durP2;ratioP2;P2;SDS_P1;SDS_P2;PMS_P1;PMS_P2;Temp;Humidity;BMP_temperature;BMP_pressure;BME280_temperature;BME280_humidity;BME280_pressure;Samples;Min_cycle;Max_cycle;Signal;HPM_P1;HPM_P2
2023/01/20 00:00:12;;;;;;;;;;;8.20;99.90;;;;;;5073207;28;19947;-71
2023/01/20 00:02:38;;;;;;;;;;;8.20;99.90;;;;;;5073108;28;19919;-73
2023/01/20 00:05:05;;;;;;;;;;;8.00;99.90;;;;;;5073077;28;19904;-72
2023/01/20 00:07:33;;;;;;;;;;;7.90;99.90;;;;;;5073464;28;19941;-73
2023/01/20 00:09:59;;;;;;;;;;;7.80;99.90;;;;;;5073006;28;19909;-70
2023/01/20 00:12:28;;;;;;;;;;;7.40;99.90;;;;;;5073059;28;19905;-70
2023/01/20 00:14:54;;;;;;;;;;;7.20;99.90;;;;;;5072482;28;19904;-73
2023/01/20 00:17:20;;;;;;;;;;;6.90;99.90;;;;;;5072939;28;19905;-72
2023/01/20 00:19:46;;;;;;;;;;;6.80;99.90;;;;;;5073071;28;19912;-73
2023/01/20 00:22:13;;;;;;;;;;;6.80;99.90;;;;;;5072416;28;19998;-70
2023/01/20 00:24:39;;;;;;;;;;;6.70;99.90;;;;;;5072941;28;19927;-71
2023/01/20 07:30:12;;;;;;;;;;;10.10;99.90;;;;;;5172494;22;19928;-73
2023/01/20 07:32:41;;;;;;;;;;;10.00;99.90;;;;;;5054529;28;19920;-73
2023/01/20 07:35:07;;;;;;;;;;;10.10;99.90;;;;;;5036776;28;19954;-70
2023/01/20 07:37:47;;;;;;;;;;;10.30;99.90;;;;;;5011480;28;19966;-73
2023/01/20 07:40:13;;;;;;;;;;;10.40;99.90;;;;;;5054686;28;19935;-73
2023/01/20 07:42:39;;;;;;;;;;;10.60;99.90;;;;;;5055109;28;19960;-72
2023/01/20 07:45:05;;;;;;;;;;;10.80;99.90;;;;;;5036289;28;19999;-72
2023/01/20 07:47:31;;;;;;;;;;;10.90;99.90;;;;;;5036475;28;19915;-72
2023/01/20 07:49:58;;;;;;;;;;;11.10;99.90;;;;;;5055027;28;19953;-72
2023/01/20 07:52:23;;;;;;;;;;;11.10;99.90;;;;;;5054770;28;19911;-74
2023/01/20 07:54:49;;;;;;;;;;;11.30;99.90;;;;;;5054637;28;20015;-74
2023/01/20 07:57:15;;;;;;;;;;;11.80;99.90;;;;;;5054861;28;20368;-76
2023/01/20 07:59:41;;;;;;;;;;;12.30;99.90;;;;;;5054249;28;19948;-72
2023/01/20 08:02:08;;;;;;;;;;;12.70;99.90;;;;;;5052532;28;20269;-74
2023/01/20 08:04:34;;;;;;;;;;;12.80;99.90;;;;;;5054203;28;19908;-75
2023/01/20 08:07:00;;;;;;;;;;;12.90;99.90;;;;;;5054326;28;20271;-75
2023/01/20 08:09:26;;;;;;;;;;;12.90;99.90;;;;;;5052971;28;20356;-75
2023/01/20 08:11:51;;;;;;;;;;;12.90;99.90;;;;;;5055036;28;19905;-74
2023/01/20 08:14:17;;;;;;;;;;;12.80;99.90;;;;;;5054031;28;19911;-77
2023/01/20 08:16:43;;;;;;;;;;;12.60;99.90;;;;;;5054311;28;19928;-75
2023/01/20 08:19:09;;;;;;;;;;;12.30;99.90;;;;;;5054232;28;19961;-74
2023/01/20 08:21:34;;;;;;;;;;;12.20;99.90;;;;;;5052949;28;19966;-75
2023/01/20 08:24:01;;;;;;;;;;;11.90;99.90;;;;;;5054419;28;20347;-74
2023/01/20 08:26:28;;;;;;;;;;;11.60;99.90;;;;;;5054073;28;19905;-74
2023/01/20 08:28:55;;;;;;;;;;;11.50;99.90;;;;;;5035749;28;19908;-75
2023/01/20 08:31:21;;;;;;;;;;;11.30;99.90;;;;;;5063598;28;19920;-76
2023/01/20 08:33:50;;;;;;;;;;;11.30;99.90;;;;;;5074064;28;20054;-75
2023/01/20 08:36:19;;;;;;;;;;;11.20;99.90;;;;;;5072748;28;20352;-75
2023/01/20 08:38:46;;;;;;;;;;;11.20;99.90;;;;;;5074268;28;20012;-75
2023/01/20 08:41:13;;;;;;;;;;;11.20;99.90;;;;;;5074104;28;20405;-75
2023/01/20 08:43:40;;;;;;;;;;;11.00;99.90;;;;;;5073539;28;19912;-74
2023/01/20 08:46:08;;;;;;;;;;;11.00;99.90;;;;;;5073713;28;19939;-75
2023/01/20 08:48:34;;;;;;;;;;;10.90;99.90;;;;;;5073697;28;19920;-75
2023/01/20 08:51:08;;;;;;;;;;;10.80;99.90;;;;;;5073731;28;19997;-75
2023/01/20 08:53:35;;;;;;;;;;;11.00;99.90;;;;;;5073195;28;19996;-75
2023/01/20 08:56:01;;;;;;;;;;;11.00;99.90;;;;;;5073497;28;20401;-74
2023/01/20 08:58:28;;;;;;;;;;;10.90;99.90;;;;;;5073001;28;19936;-75
2023/01/20 09:00:54;;;;;;;;;;;11.00;99.90;;;;;;5072782;28;19970;-74
2023/01/20 09:03:21;;;;;;;;;;;11.30;99.90;;;;;;5072926;28;19913;-75
2023/01/20 09:05:47;;;;;;;;;;;11.30;99.90;;;;;;5073025;28;19911;-75
2023/01/20 09:08:14;;;;;;;;;;;11.40;99.90;;;;;;5072998;28;19915;-75
2023/01/20 09:10:40;;;;;;;;;;;11.30;99.90;;;;;;5072943;28;20367;-75
2023/01/20 09:13:06;;;;;;;;;;;11.40;99.90;;;;;;5073088;28;20012;-74
2023/01/20 09:15:32;;;;;;;;;;;11.40;99.90;;;;;;5072830;28;19911;-75
2023/01/20 09:17:58;;;;;;;;;;;11.40;99.90;;;;;;5073361;28;19950;-74
2023/01/20 09:20:24;;;;;;;;;;;11.40;99.90;;;;;;5073471;28;19957;-74
2023/01/20 09:22:50;;;;;;;;;;;11.50;99.90;;;;;;5073086;28;20421;-75
2023/01/20 09:25:16;;;;;;;;;;;11.50;99.90;;;;;;5073066;28;19905;-74
2023/01/20 09:27:42;;;;;;;;;;;11.80;99.90;;;;;;5073124;28;19911;-73
2023/01/20 09:30:08;;;;;;;;;;;12.00;99.90;;;;;;5073062;28;19904;-74
2023/01/20 09:32:33;;;;;;;;;;;12.20;99.90;;;;;;5072661;28;19924;-75
2023/01/20 09:35:00;;;;;;;;;;;12.40;99.90;;;;;;5072811;28;19904;-75
2023/01/20 09:46:13;;;;;;;;;;;12.90;99.90;;;;;;5073001;28;19931;-74
2023/01/20 09:54:22;;;;;;;;;;;13.20;99.90;;;;;;5072077;28;19923;-76
2023/01/20 09:56:48;;;;;;;;;;;13.00;99.90;;;;;;5072499;28;19904;-74
2023/01/20 09:59:34;;;;;;;;;;;12.90;99.90;;;;;;5071961;28;20079;-73
2023/01/20 10:02:00;;;;;;;;;;;13.00;99.90;;;;;;5061267;28;19912;-73
2023/01/20 10:04:45;;;;;;;;;;;12.90;99.90;;;;;;5054195;28;20118;-73
2023/01/20 10:07:22;;;;;;;;;;;12.90;99.90;;;;;;5072577;28;19904;-73
2023/01/20 10:09:52;;;;;;;;;;;13.00;99.90;;;;;;5072247;28;19904;-72
2023/01/20 10:12:18;;;;;;;;;;;13.10;99.90;;;;;;5071905;28;20230;-73
2023/01/20 10:14:45;;;;;;;;;;;13.10;99.90;;;;;;5071857;28;20091;-72
2023/01/20 10:17:17;;;;;;;;;;;13.10;99.90;;;;;;5072083;28;20271;-73
2023/01/20 10:19:57;;;;;;;;;;;13.10;99.90;;;;;;5071944;28;20037;-69
2023/01/20 10:22:29;;;;;;;;;;;13.20;99.90;;;;;;5072151;28;19913;-73
2023/01/20 10:24:55;;;;;;;;;;;13.10;99.90;;;;;;5053725;28;19905;-72
2023/01/20 10:27:25;;;;;;;;;;;13.10;99.90;;;;;;5071822;28;20327;-71
2023/01/20 10:29:55;;;;;;;;;;;13.30;99.90;;;;;;5071706;28;19950;-73
2023/01/20 10:32:21;;;;;;;;;;;13.40;99.90;;;;;;5054002;28;19920;-74
2023/01/20 10:34:49;;;;;;;;;;;13.40;99.90;;;;;;5072467;28;20379;-72
2023/01/20 10:37:16;;;;;;;;;;;13.40;99.90;;;;;;5071909;28;19911;-73
2023/01/20 10:39:48;;;;;;;;;;;13.40;99.90;;;;;;5072451;28;19904;-69
2023/01/20 10:42:15;;;;;;;;;;;13.40;99.90;;;;;;5053707;28;19912;-72
2023/01/20 10:44:41;;;;;;;;;;;13.60;99.90;;;;;;5071854;28;19911;-73
2023/01/20 10:47:24;;;;;;;;;;;13.60;99.90;;;;;;5071510;28;19991;-73
2023/01/20 10:50:01;;;;;;;;;;;13.60;99.90;;;;;;5072757;28;19911;-72
2023/01/20 10:52:43;;;;;;;;;;;13.50;99.90;;;;;;5057406;28;19905;-73
2023/01/20 10:55:27;;;;;;;;;;;13.40;99.90;;;;;;5076055;28;19915;-73
2023/01/20 10:58:16;;;;;;;;;;;13.40;99.90;;;;;;5075615;28;19995;-75
2023/01/20 11:00:42;;;;;;;;;;;13.20;99.90;;;;;;5048843;28;19914;-73
2023/01/20 11:03:13;;;;;;;;;;;13.20;99.90;;;;;;5075395;28;19912;-75
2023/01/20 11:05:41;;;;;;;;;;;13.10;99.90;;;;;;5075897;28;19908;-75
2023/01/20 11:08:09;;;;;;;;;;;13.00;99.90;;;;;;5075573;28;20003;-76
2023/01/20 11:10:34;;;;;;;;;;;13.10;99.90;;;;;;5075181;28;19943;-74
2023/01/20 11:13:04;;;;;;;;;;;13.20;99.90;;;;;;5075291;28;20366;-68
2023/01/20 11:15:34;;;;;;;;;;;13.10;99.90;;;;;;5063153;28;19916;-73
2023/01/20 11:18:15;;;;;;;;;;;13.00;99.90;;;;;;5063166;28;20051;-73
2023/01/20 11:20:51;;;;;;;;;;;13.10;99.90;;;;;;5054868;28;19911;-68
2023/01/20 11:23:36;;;;;;;;;;;13.00;99.90;;;;;;5061732;28;20030;-74
2023/01/20 11:26:08;;;;;;;;;;;13.00;99.90;;;;;;5066252;28;19911;-73
2023/01/20 11:28:44;;;;;;;;;;;12.90;99.90;;;;;;5073536;28;19915;-73
2023/01/20 11:31:11;;;;;;;;;;;12.80;99.90;;;;;;5049797;28;19916;-73
2023/01/20 11:33:37;;;;;;;;;;;12.70;99.90;;;;;;5053587;28;19951;-72
2023/01/20 11:36:16;;;;;;;;;;;12.80;99.90;;;;;;5053844;28;19947;-69
2023/01/20 11:38:44;;;;;;;;;;;12.80;99.90;;;;;;5052829;28;19936;-68
2023/01/20 11:41:26;;;;;;;;;;;12.90;99.90;;;;;;5051518;28;19904;-71
2023/01/20 11:43:54;;;;;;;;;;;12.80;99.90;;;;;;5033353;28;19912;-72
2023/01/20 11:46:26;;;;;;;;;;;12.80;99.90;;;;;;5053885;28;19951;-73
2023/01/20 11:49:06;;;;;;;;;;;12.70;99.90;;;;;;5054610;28;19908;-75
2023/01/20 11:51:42;;;;;;;;;;;12.80;99.90;;;;;;5036400;28;19905;-73
2023/01/20 11:54:12;;;;;;;;;;;12.70;99.90;;;;;;5035986;28;19904;-74
2023/01/20 11:56:40;;;;;;;;;;;12.70;99.90;;;;;;5036850;28;20299;-75
2023/01/20 11:59:17;;;;;;;;;;;12.60;99.90;;;;;;5054797;28;19911;-74
2023/01/20 12:01:50;;;;;;;;;;;12.60;99.90;;;;;;5054140;28;20272;-74
2023/01/20 12:04:22;;;;;;;;;;;12.60;99.90;;;;;;5035857;28;19913;-74
2023/01/20 12:07:02;;;;;;;;;;;12.60;99.90;;;;;;5053891;28;19924;-75
2023/01/20 12:09:31;;;;;;;;;;;12.60;99.90;;;;;;5053514;28;19905;-75
2023/01/20 12:12:03;;;;;;;;;;;12.60;99.90;;;;;;5053415;28;19909;-75
2023/01/20 12:14:33;;;;;;;;;;;12.60;99.90;;;;;;5052949;28;19916;-74
2023/01/20 12:17:05;;;;;;;;;;;12.60;99.90;;;;;;5053116;28;19915;-74
2023/01/20 12:19:35;;;;;;;;;;;12.50;99.90;;;;;;5054521;28;20260;-72
2023/01/20 12:22:05;;;;;;;;;;;12.50;99.90;;;;;;5054700;28;20244;-74
2023/01/20 12:27:32;;;;;;;;;;;12.40;99.90;;;;;;5055377;28;19911;-75
2023/01/20 12:30:01;;;;;;;;;;;12.60;99.90;;;;;;5053795;28;20337;-74
2023/01/20 12:32:28;;;;;;;;;;;12.40;99.90;;;;;;5052655;28;19970;-74
2023/01/20 12:34:54;;;;;;;;;;;12.40;99.90;;;;;;5072664;28;20343;-74
2023/01/20 12:37:28;;;;;;;;;;;12.40;99.90;;;;;;5074133;28;19916;-74
2023/01/20 12:40:12;;;;;;;;;;;12.40;99.90;;;;;;5056049;28;19955;-74
2023/01/20 12:42:39;;;;;;;;;;;12.40;99.90;;;;;;5073580;28;20256;-73
2023/01/20 12:45:05;;;;;;;;;;;12.50;99.90;;;;;;5073917;28;19911;-75
2023/01/20 12:47:33;;;;;;;;;;;12.40;99.90;;;;;;5073486;28;20284;-74
2023/01/20 12:50:08;;;;;;;;;;;12.40;99.90;;;;;;5074209;28;20017;-72
2023/01/20 12:52:40;;;;;;;;;;;12.50;99.90;;;;;;5073468;28;20031;-74
2023/01/20 12:55:18;;;;;;;;;;;12.40;99.90;;;;;;5073020;28;19957;-74
2023/01/20 12:57:46;;;;;;;;;;;12.30;99.90;;;;;;5074070;28;19988;-74
2023/01/20 13:00:21;;;;;;;;;;;12.20;99.90;;;;;;5073226;28;19909;-74
2023/01/20 13:02:56;;;;;;;;;;;12.30;99.90;;;;;;5073550;28;19957;-70
2023/01/20 13:05:29;;;;;;;;;;;12.30;99.90;;;;;;5073221;28;19912;-75
2023/01/20 13:08:04;;;;;;;;;;;12.40;99.90;;;;;;5074494;28;19911;-74
2023/01/20 13:10:42;;;;;;;;;;;12.30;99.90;;;;;;5073745;28;19912;-74
2023/01/20 13:13:27;;;;;;;;;;;12.30;99.90;;;;;;5055241;28;19904;-73
2023/01/20 13:16:07;;;;;;;;;;;12.30;99.90;;;;;;5073750;28;19962;-74
2023/01/20 13:18:33;;;;;;;;;;;12.50;99.90;;;;;;5074293;28;19965;-72
2023/01/20 13:21:00;;;;;;;;;;;12.40;99.90;;;;;;5074125;28;20407;-73
2023/01/20 13:23:32;;;;;;;;;;;12.50;99.90;;;;;;5074535;28;19912;-75
2023/01/20 13:25:59;;;;;;;;;;;12.40;99.90;;;;;;5073897;28;19912;-74
2023/01/20 13:28:27;;;;;;;;;;;12.50;99.90;;;;;;5074186;28;19905;-74
2023/01/20 13:30:53;;;;;;;;;;;12.50;99.90;;;;;;5073508;28;19912;-73
2023/01/20 13:33:38;;;;;;;;;;;12.40;99.90;;;;;;5074339;28;20003;-73
2023/01/20 13:36:20;;;;;;;;;;;12.40;99.90;;;;;;5073942;28;19904;-74
2023/01/20 13:38:48;;;;;;;;;;;12.40;99.90;;;;;;5055682;28;20092;-74
2023/01/20 13:41:40;;;;;;;;;;;12.40;99.90;;;;;;5073746;28;19905;-74
2023/01/20 13:44:24;;;;;;;;;;;12.40;99.90;;;;;;5070428;28;19919;-74
2023/01/20 13:46:50;;;;;;;;;;;12.50;99.90;;;;;;5073321;28;20260;-74
2023/01/20 13:49:21;;;;;;;;;;;12.60;99.90;;;;;;5072989;28;20339;-74
2023/01/20 13:51:47;;;;;;;;;;;12.50;99.90;;;;;;5072619;28;19940;-74
2023/01/20 13:54:27;;;;;;;;;;;12.50;99.90;;;;;;5071833;28;20319;-73
2023/01/20 13:57:29;;;;;;;;;;;12.50;99.90;;;;;;5072973;28;19953;-74
2023/01/20 13:59:56;;;;;;;;;;;12.50;99.90;;;;;;5011449;28;19905;-70
2023/01/20 14:02:54;;;;;;;;;;;12.50;99.90;;;;;;5010688;28;20024;-70
2023/01/20 14:05:42;;;;;;;;;;;12.50;99.90;;;;;;5010864;28;19916;-70
2023/01/20 14:08:21;;;;;;;;;;;12.50;99.90;;;;;;4991323;28;19956;-71
2023/01/20 14:10:47;;;;;;;;;;;12.60;99.90;;;;;;4995080;28;20436;-71
2023/01/20 14:13:31;;;;;;;;;;;12.60;99.90;;;;;;5009978;28;19956;-72
2023/01/20 14:15:56;;;;;;;;;;;12.60;99.90;;;;;;5010928;28;19913;-75
2023/01/20 14:18:24;;;;;;;;;;;12.70;99.90;;;;;;4994999;28;19905;-74
2023/01/20 14:21:15;;;;;;;;;;;12.80;99.90;;;;;;5011399;28;20304;-74
2023/01/20 14:23:41;;;;;;;;;;;12.70;99.90;;;;;;5006780;28;19914;-74
2023/01/20 14:26:07;;;;;;;;;;;12.80;99.90;;;;;;5015514;28;20009;-74
2023/01/20 14:28:34;;;;;;;;;;;12.70;99.90;;;;;;5015104;28;20387;-74
2023/01/20 14:31:10;;;;;;;;;;;12.70;99.90;;;;;;5014650;28;20297;-74
2023/01/20 14:33:43;;;;;;;;;;;12.70;99.90;;;;;;5023851;28;19905;-74
2023/01/20 14:36:21;;;;;;;;;;;12.60;99.90;;;;;;5036990;28;19909;-75
2023/01/20 14:38:55;;;;;;;;;;;12.60;99.90;;;;;;5037579;28;19905;-74
2023/01/20 14:41:26;;;;;;;;;;;12.50;99.90;;;;;;5036959;28;19916;-74
2023/01/20 14:43:52;;;;;;;;;;;12.40;99.90;;;;;;5037486;28;20349;-75
2023/01/20 14:46:18;;;;;;;;;;;12.40;99.90;;;;;;5018928;28;19904;-74
2023/01/20 14:48:44;;;;;;;;;;;12.40;99.90;;;;;;5037376;28;19912;-73
2023/01/20 14:51:10;;;;;;;;;;;12.40;99.90;;;;;;5018946;28;20331;-75
2023/01/20 14:53:36;;;;;;;;;;;12.40;99.90;;;;;;5037516;28;20003;-70
2023/01/20 14:56:03;;;;;;;;;;;12.30;99.90;;;;;;5036999;28;19905;-76
2023/01/20 14:58:29;;;;;;;;;;;12.30;99.90;;;;;;5037404;28;19987;-76
2023/01/20 15:00:58;;;;;;;;;;;12.20;99.90;;;;;;5054056;28;19905;-76
2023/01/20 15:03:28;;;;;;;;;;;12.20;99.90;;;;;;5056975;28;20270;-76
2023/01/20 15:06:10;;;;;;;;;;;12.30;99.90;;;;;;5056600;28;19931;-75
2023/01/20 15:08:36;;;;;;;;;;;12.70;99.90;;;;;;5056495;28;20363;-76
2023/01/20 15:11:20;;;;;;;;;;;12.90;99.90;;;;;;5056633;28;19911;-71
2023/01/20 15:13:52;;;;;;;;;;;12.70;99.90;;;;;;5052332;28;19912;-76
2023/01/20 15:16:22;;;;;;;;;;;12.80;99.90;;;;;;5036867;28;19912;-75
2023/01/20 15:19:08;;;;;;;;;;;12.70;99.90;;;;;;5035965;28;19905;-75
2023/01/20 15:21:34;;;;;;;;;;;12.90;99.90;;;;;;5029262;28;20340;-77
2023/01/20 15:24:12;;;;;;;;;;;12.90;99.90;;;;;;5036283;28;20316;-74
2023/01/20 15:26:38;;;;;;;;;;;12.90;99.90;;;;;;5035936;28;19905;-75
2023/01/20 15:29:20;;;;;;;;;;;12.90;99.90;;;;;;5035520;28;19905;-75
2023/01/20 15:31:46;;;;;;;;;;;12.90;99.90;;;;;;5044776;28;20311;-75
2023/01/20 15:34:12;;;;;;;;;;;12.80;99.90;;;;;;5055939;28;19944;-74
2023/01/20 15:36:39;;;;;;;;;;;12.80;99.90;;;;;;5054843;28;19940;-74
2023/01/20 15:39:14;;;;;;;;;;;12.60;99.90;;;;;;5055746;28;19948;-75
2023/01/20 15:41:40;;;;;;;;;;;12.50;99.90;;;;;;5037552;28;20241;-75
2023/01/20 15:44:06;;;;;;;;;;;12.30;99.90;;;;;;5060123;28;19912;-74
2023/01/20 15:46:32;;;;;;;;;;;12.30;99.90;;;;;;5076213;28;20300;-75
2023/01/20 15:48:58;;;;;;;;;;;12.30;99.90;;;;;;5075424;28;19909;-75
2023/01/20 15:51:25;;;;;;;;;;;12.20;99.90;;;;;;5075093;28;19948;-75
2023/01/20 15:53:51;;;;;;;;;;;12.20;99.90;;;;;;5074518;28;19911;-74
2023/01/20 15:56:21;;;;;;;;;;;12.00;99.90;;;;;;5056397;28;19904;-75
2023/01/20 15:58:47;;;;;;;;;;;12.10;99.90;;;;;;5074387;28;19905;-72
2023/01/20 16:01:14;;;;;;;;;;;11.90;99.90;;;;;;5074836;28;20320;-72
2023/01/20 16:03:41;;;;;;;;;;;11.90;99.90;;;;;;5040857;28;19920;-70
2023/01/20 16:06:17;;;;;;;;;;;11.70;99.90;;;;;;5037787;28;19908;-72
2023/01/20 16:08:46;;;;;;;;;;;11.80;99.90;;;;;;5035110;28;19909;-72
2023/01/20 16:11:17;;;;;;;;;;;11.70;99.90;;;;;;5053956;28;19912;-69
2023/01/20 16:13:43;;;;;;;;;;;11.60;99.90;;;;;;5055188;28;19916;-75
2023/01/20 16:16:19;;;;;;;;;;;11.60;99.90;;;;;;5068130;28;19908;-74
2023/01/20 16:18:47;;;;;;;;;;;11.60;99.90;;;;;;5073243;28;20007;-74
2023/01/20 16:21:14;;;;;;;;;;;11.70;99.90;;;;;;5074566;28;19910;-73
2023/01/20 16:23:41;;;;;;;;;;;11.70;99.90;;;;;;5074110;28;19919;-76
2023/01/20 16:26:23;;;;;;;;;;;11.70;99.90;;;;;;5074675;28;20367;-74
2023/01/20 16:28:50;;;;;;;;;;;11.70;99.90;;;;;;5056109;28;19908;-75
2023/01/20 16:31:16;;;;;;;;;;;11.90;99.90;;;;;;5051657;28;19920;-74
2023/01/20 16:33:42;;;;;;;;;;;11.80;99.90;;;;;;5054459;28;19913;-72
2023/01/20 16:36:12;;;;;;;;;;;11.90;99.90;;;;;;5036759;28;20284;-74
2023/01/20 16:38:38;;;;;;;;;;;11.70;99.90;;;;;;5054069;28;19958;-74
2023/01/20 16:41:05;;;;;;;;;;;11.50;99.90;;;;;;5054389;28;19959;-75
2023/01/20 16:43:31;;;;;;;;;;;11.20;99.90;;;;;;5053687;28;19913;-73
2023/01/20 16:45:57;;;;;;;;;;;11.20;99.90;;;;;;5054048;28;19996;-74
2023/01/20 16:48:24;;;;;;;;;;;11.00;99.90;;;;;;5053952;28;20050;-74
2023/01/20 16:50:51;;;;;;;;;;;11.10;99.90;;;;;;5053885;28;19909;-73
2023/01/20 16:53:18;;;;;;;;;;;10.80;99.90;;;;;;5035553;28;19905;-76
2023/01/20 16:55:45;;;;;;;;;;;10.60;99.90;;;;;;5053066;28;20474;-75
2023/01/20 16:58:11;;;;;;;;;;;10.40;99.90;;;;;;5053317;28;19912;-73
2023/01/20 17:00:37;;;;;;;;;;;10.10;99.90;;;;;;5054505;28;19920;-76
2023/01/20 17:03:03;;;;;;;;;;;9.90;99.90;;;;;;5035396;28;19913;-75
2023/01/20 17:05:29;;;;;;;;;;;9.80;99.90;;;;;;5053585;28;19927;-75
2023/01/20 17:07:56;;;;;;;;;;;9.90;99.90;;;;;;5053347;28;20364;-76
2023/01/20 17:10:23;;;;;;;;;;;9.80;99.90;;;;;;5052971;28;19905;-72
2023/01/20 17:12:52;;;;;;;;;;;10.00;99.90;;;;;;5034917;28;19905;-69
2023/01/20 17:15:24;;;;;;;;;;;9.90;99.90;;;;;;5049773;28;19905;-71
2023/01/20 17:17:53;;;;;;;;;;;10.00;99.90;;;;;;5053536;28;19950;-71
2023/01/20 17:20:19;;;;;;;;;;;10.00;99.90;;;;;;5053920;28;20383;-74
2023/01/20 17:22:45;;;;;;;;;;;10.10;99.90;;;;;;5053534;28;20402;-75
2023/01/20 17:25:12;;;;;;;;;;;10.00;99.90;;;;;;5053392;28;19905;-75
2023/01/20 17:27:38;;;;;;;;;;;10.10;99.90;;;;;;5053583;28;20316;-76
2023/01/20 17:30:06;;;;;;;;;;;10.10;99.90;;;;;;5053154;28;19905;-74
2023/01/20 17:32:34;;;;;;;;;;;10.30;99.90;;;;;;5068264;28;20355;-75
2023/01/20 17:34:59;;;;;;;;;;;10.30;99.90;;;;;;5073193;28;19979;-70
2023/01/20 17:37:25;;;;;;;;;;;10.40;99.90;;;;;;5066041;28;19913;-71
2023/01/20 17:39:51;;;;;;;;;;;10.60;99.90;;;;;;5064627;28;19944;-74
2023/01/20 17:42:17;;;;;;;;;;;10.60;99.90;;;;;;5058777;28;19932;-72
2023/01/20 17:44:43;;;;;;;;;;;10.70;99.90;;;;;;5062861;28;19904;-73
2023/01/20 17:47:08;;;;;;;;;;;10.60;99.90;;;;;;5066087;28;19908;-76
2023/01/20 17:49:34;;;;;;;;;;;10.70;99.90;;;;;;5071395;28;20446;-76
2023/01/20 17:52:00;;;;;;;;;;;10.70;99.90;;;;;;5045062;28;20342;-73
2023/01/20 17:54:27;;;;;;;;;;;10.70;99.90;;;;;;5052714;28;19927;-70
2023/01/20 17:56:53;;;;;;;;;;;10.70;99.90;;;;;;5053322;28;20007;-74
2023/01/20 17:59:19;;;;;;;;;;;10.70;99.90;;;;;;5052417;28;19936;-75
2023/01/20 18:01:44;;;;;;;;;;;10.70;99.90;;;;;;5034861;28;19916;-73
2023/01/20 18:04:10;;;;;;;;;;;10.70;99.90;;;;;;5052978;28;19923;-73
2023/01/20 18:06:37;;;;;;;;;;;10.70;99.90;;;;;;5053006;28;20348;-73
2023/01/20 18:09:04;;;;;;;;;;;10.70;99.90;;;;;;5052697;28;19905;-73
2023/01/20 18:11:31;;;;;;;;;;;10.90;99.90;;;;;;5052727;28;19931;-74
2023/01/20 18:13:58;;;;;;;;;;;10.80;99.90;;;;;;5056312;28;20317;-74
2023/01/20 18:16:26;;;;;;;;;;;10.90;99.90;;;;;;5073149;28;19917;-74
2023/01/20 18:18:57;;;;;;;;;;;10.90;99.90;;;;;;5072758;28;19940;-71
2023/01/20 18:21:23;;;;;;;;;;;10.90;99.90;;;;;;5072779;28;20340;-73
2023/01/20 18:23:50;;;;;;;;;;;10.80;99.90;;;;;;5073092;28;19912;-73
2023/01/20 18:26:17;;;;;;;;;;;10.80;99.90;;;;;;5072853;28;20312;-73
2023/01/20 18:28:48;;;;;;;;;;;10.80;99.90;;;;;;5054450;28;19961;-73
2023/01/20 18:31:18;;;;;;;;;;;10.80;99.90;;;;;;5072567;28;19916;-73
2023/01/20 18:33:48;;;;;;;;;;;10.80;99.90;;;;;;5072589;28;20389;-72
2023/01/20 18:36:37;;;;;;;;;;;10.80;99.90;;;;;;5072517;28;19904;-72
2023/01/20 18:39:04;;;;;;;;;;;10.80;99.90;;;;;;5064510;28;19905;-72
2023/01/20 18:41:31;;;;;;;;;;;10.80;99.90;;;;;;5072399;28;19909;-73
2023/01/20 18:43:58;;;;;;;;;;;10.80;99.90;;;;;;5072100;28;19923;-72
2023/01/20 18:46:25;;;;;;;;;;;10.80;99.90;;;;;;5072488;28;19905;-72
2023/01/20 18:48:52;;;;;;;;;;;10.70;99.90;;;;;;5054532;28;19909;-73
2023/01/20 18:51:19;;;;;;;;;;;10.60;99.90;;;;;;5072960;28;19904;-73
2023/01/20 18:53:46;;;;;;;;;;;10.40;99.90;;;;;;5072429;28;20273;-72
2023/01/20 18:56:14;;;;;;;;;;;10.30;99.90;;;;;;5071437;28;19958;-72
2023/01/20 18:58:44;;;;;;;;;;;10.10;99.90;;;;;;5051759;28;19905;-73
2023/01/20 19:01:11;;;;;;;;;;;9.90;99.90;;;;;;5069004;28;20003;-73
2023/01/20 19:03:38;;;;;;;;;;;9.70;99.90;;;;;;5071666;28;19912;-72
2023/01/20 19:06:09;;;;;;;;;;;9.50;99.90;;;;;;5071861;28;20275;-72
2023/01/20 19:08:36;;;;;;;;;;;9.40;99.90;;;;;;5071826;28;19908;-71
2023/01/20 19:11:03;;;;;;;;;;;9.40;99.90;;;;;;5072898;28;19940;-72
2023/01/20 19:13:29;;;;;;;;;;;9.30;99.90;;;;;;5075162;28;20423;-73
2023/01/20 19:15:55;;;;;;;;;;;9.10;99.90;;;;;;5057378;28;20008;-74
2023/01/20 19:18:20;;;;;;;;;;;8.90;99.90;;;;;;5075821;28;20020;-72
2023/01/20 19:20:46;;;;;;;;;;;8.80;99.90;;;;;;5076122;28;19904;-74
2023/01/20 19:23:12;;;;;;;;;;;8.70;99.90;;;;;;5075607;28;19912;-70
2023/01/20 19:25:38;;;;;;;;;;;8.70;99.90;;;;;;5075612;28;19916;-74
2023/01/20 19:28:05;;;;;;;;;;;8.70;99.90;;;;;;5074439;28;20348;-73
2023/01/20 19:30:31;;;;;;;;;;;8.70;99.90;;;;;;5075374;28;19995;-74
2023/01/20 19:32:57;;;;;;;;;;;8.70;99.90;;;;;;5074377;28;19962;-74
2023/01/20 19:35:22;;;;;;;;;;;8.70;99.90;;;;;;5075637;28;19905;-74
2023/01/20 19:37:49;;;;;;;;;;;8.70;99.90;;;;;;5075942;28;20268;-74
2023/01/20 19:40:15;;;;;;;;;;;8.70;99.90;;;;;;5075520;28;20315;-74
2023/01/20 19:42:41;;;;;;;;;;;8.70;99.90;;;;;;5075393;28;19932;-71
2023/01/20 19:45:08;;;;;;;;;;;8.80;99.90;;;;;;5075260;28;20356;-71
2023/01/20 19:47:34;;;;;;;;;;;8.70;99.90;;;;;;5075552;28;19908;-74
2023/01/20 19:50:00;;;;;;;;;;;8.70;99.90;;;;;;5075367;28;20004;-74
2023/01/20 19:52:30;;;;;;;;;;;8.60;99.90;;;;;;5075282;28;20339;-74
2023/01/20 19:54:56;;;;;;;;;;;8.60;99.90;;;;;;5074749;28;20355;-74
2023/01/20 19:57:21;;;;;;;;;;;8.60;99.90;;;;;;5075209;28;19905;-73
2023/01/20 19:59:47;;;;;;;;;;;8.60;99.90;;;;;;5074545;28;19904;-74
2023/01/20 20:02:13;;;;;;;;;;;8.60;99.90;;;;;;5073185;28;19904;-73
2023/01/20 20:04:39;;;;;;;;;;;8.60;99.90;;;;;;5074910;28;20411;-71
2023/01/20 20:07:04;;;;;;;;;;;8.60;99.90;;;;;;5074518;28;19904;-73
2023/01/20 20:09:34;;;;;;;;;;;8.70;99.90;;;;;;5074908;28;19908;-72
2023/01/20 20:12:04;;;;;;;;;;;8.60;99.90;;;;;;5074700;28;19992;-74
2023/01/20 20:14:31;;;;;;;;;;;8.60;99.90;;;;;;5073231;28;19947;-73
2023/01/20 20:16:59;;;;;;;;;;;8.60;99.90;;;;;;5074338;28;20423;-73
2023/01/20 20:19:24;;;;;;;;;;;8.60;99.90;;;;;;5073685;28;19904;-73
2023/01/20 20:21:52;;;;;;;;;;;8.60;99.90;;;;;;5073758;28;20316;-72
2023/01/20 20:24:18;;;;;;;;;;;8.60;99.90;;;;;;5073827;28;19918;-74
2023/01/20 20:26:45;;;;;;;;;;;8.60;99.90;;;;;;5073823;28;19904;-74
2023/01/20 20:29:11;;;;;;;;;;;8.50;99.90;;;;;;5059597;28;20363;-73
2023/01/20 20:31:38;;;;;;;;;;;8.40;99.90;;;;;;5073328;28;19917;-72
2023/01/20 20:34:06;;;;;;;;;;;8.20;99.90;;;;;;5073281;28;19905;-72
2023/01/20 20:36:32;;;;;;;;;;;8.10;99.90;;;;;;5055200;28;19955;-72
2023/01/20 20:38:58;;;;;;;;;;;8.00;99.90;;;;;;5073175;28;19904;-73
2023/01/20 20:41:27;;;;;;;;;;;8.00;99.90;;;;;;5073301;28;19911;-74
2023/01/20 20:43:53;;;;;;;;;;;8.00;99.90;;;;;;5073539;28;19912;-73
2023/01/20 20:46:19;;;;;;;;;;;8.00;99.90;;;;;;5073440;28;19976;-74
2023/01/20 20:48:46;;;;;;;;;;;7.90;99.90;;;;;;5072993;28;19996;-73
2023/01/20 20:51:14;;;;;;;;;;;8.00;99.90;;;;;;5073317;28;19911;-73
2023/01/20 20:53:40;;;;;;;;;;;8.00;99.90;;;;;;5072769;28;20413;-73
2023/01/20 20:56:08;;;;;;;;;;;8.10;99.90;;;;;;5055231;28;20275;-72
2023/01/20 20:58:34;;;;;;;;;;;8.20;99.90;;;;;;5073038;28;20057;-73
2023/01/20 21:01:01;;;;;;;;;;;8.30;99.90;;;;;;5073146;28;19904;-74
2023/01/20 21:03:28;;;;;;;;;;;8.30;99.90;;;;;;5072780;28;19957;-73
2023/01/20 21:05:53;;;;;;;;;;;8.20;99.90;;;;;;5072667;28;19910;-73
2023/01/20 21:08:19;;;;;;;;;;;8.20;99.90;;;;;;5072601;28;19934;-73
2023/01/20 21:10:45;;;;;;;;;;;8.30;99.90;;;;;;5073035;28;19932;-73
2023/01/20 21:13:11;;;;;;;;;;;8.20;99.90;;;;;;5072863;28;19914;-73
2023/01/20 21:15:37;;;;;;;;;;;8.30;99.90;;;;;;5055545;28;19911;-73
2023/01/20 21:18:06;;;;;;;;;;;8.30;99.90;;;;;;5051233;28;19944;-73
2023/01/20 21:20:32;;;;;;;;;;;8.20;99.90;;;;;;5051178;28;19912;-73
2023/01/20 21:22:59;;;;;;;;;;;8.20;99.90;;;;;;5052756;28;19913;-73
2023/01/20 21:25:25;;;;;;;;;;;8.20;99.90;;;;;;5052526;28;19965;-75
2023/01/20 21:27:51;;;;;;;;;;;8.20;99.90;;;;;;5051135;28;19908;-72
2023/01/20 21:30:18;;;;;;;;;;;8.20;99.90;;;;;;5051983;28;19952;-74
2023/01/20 21:32:43;;;;;;;;;;;8.30;99.90;;;;;;5068123;28;20003;-72
2023/01/20 21:35:09;;;;;;;;;;;8.30;99.90;;;;;;5071624;28;19904;-72
2023/01/20 21:37:36;;;;;;;;;;;8.20;99.90;;;;;;5072043;28;20006;-73
2023/01/20 21:40:02;;;;;;;;;;;8.20;99.90;;;;;;5054633;28;20321;-72
2023/01/20 21:42:28;;;;;;;;;;;8.10;99.90;;;;;;5072978;28;20201;-72
2023/01/20 21:44:54;;;;;;;;;;;8.00;99.90;;;;;;5072016;28;19950;-72
2023/01/20 21:47:20;;;;;;;;;;;8.00;99.90;;;;;;5071893;28;19911;-73
2023/01/20 21:52:42;;;;;;;;;;;7.90;99.90;;;;;;5071990;28;19911;-72
2023/01/20 21:55:09;;;;;;;;;;;7.90;99.90;;;;;;5072144;28;19911;-73